Morrin, Canada
Current Conditions -  °F | °C
As of 6:00 AM on Thursday 30 Oct 2014 (Local Time) from CYQF Reporting Station
Moderate Fog Moderate Fog  
Wind Chill: 20°   Ceiling: 200
Heat Index: 28°   Visibility: 0.25mi
Dew Point: 28°   Wind: 9mph
Humidity: 100%   Direction: 150°SSE
Pressure: 30.2"   Gusts: NA
Location:  51.67°N, 112.77°W
Report Text: CYQF 301200Z 15008KT 1/4SM FG VV002 M02/M02 A3020 RMK FG8 SLP268
Loading
Personal Weather Stations






























Interactive Weather Map
Tropical Storm Tracking
New forecast layout! Learn more

10-Day Weather Forecast

Advertisements
Track Severe Weather on mobile